Time;durP1;ratioP1;P1;durP2;ratioP2;P2;SDS_P1;SDS_P2;PMS_P1;PMS_P2;Temp;Humidity;BMP_temperature;BMP_pressure;BME280_temperature;BME280_humidity;BME280_pressure;Samples;Min_cycle;Max_cycle;Signal;HPM_P1;HPM_P2
2023/09/14 00:00:23;;;;;;;20.60;14.52;;;14.50;99.90;;;;;;4936092;29;20059;-88
2023/09/14 00:03:12;;;;;;;25.00;17.35;;;14.50;99.90;;;;;;4931079;29;20043;-88
2023/09/14 00:06:00;;;;;;;22.25;16.45;;;14.50;99.90;;;;;;4944783;29;20051;-88
2023/09/14 00:08:47;;;;;;;24.77;17.38;;;14.60;99.90;;;;;;4934935;29;20047;-87
2023/09/14 00:11:35;;;;;;;26.60;17.77;;;14.60;99.90;;;;;;4938616;29;20075;-88
2023/09/14 00:14:22;;;;;;;28.15;17.20;;;14.50;99.90;;;;;;4938730;29;20377;-87
2023/09/14 00:17:10;;;;;;;24.80;17.42;;;14.50;99.90;;;;;;4938367;29;20066;-88
2023/09/14 00:20:02;;;;;;;27.65;18.50;;;14.50;99.90;;;;;;4929805;29;20061;-87
2023/09/14 00:22:55;;;;;;;29.50;17.95;;;14.50;99.90;;;;;;4935537;29;20063;-87
2023/09/14 00:25:42;;;;;;;27.52;18.42;;;14.50;99.90;;;;;;4937399;29;20047;-87
2023/09/14 00:28:29;;;;;;;31.08;19.13;;;14.50;99.90;;;;;;4932933;29;20051;-89
2023/09/14 00:31:22;;;;;;;29.25;19.05;;;14.50;99.90;;;;;;4938084;29;20036;-88
2023/09/14 00:34:11;;;;;;;28.67;19.35;;;14.50;99.90;;;;;;4945582;29;20138;-87
2023/09/14 00:36:58;;;;;;;31.05;19.42;;;14.50;99.90;;;;;;4926986;29;20058;-88
2023/09/14 00:39:48;;;;;;;27.15;18.38;;;14.50;99.90;;;;;;4944125;29;20048;-88
2023/09/14 00:42:41;;;;;;;29.65;19.95;;;14.40;99.90;;;;;;4947685;29;20057;-87
2023/09/14 00:45:32;;;;;;;30.83;20.25;;;14.40;99.90;;;;;;4937339;29;20068;-87
2023/09/14 00:48:21;;;;;;;38.03;20.23;;;14.30;99.90;;;;;;4937036;29;20380;-89
2023/09/14 00:51:14;;;;;;;31.33;20.88;;;14.30;99.90;;;;;;4931651;29;20047;-86
2023/09/14 00:54:03;;;;;;;35.85;20.50;;;14.30;99.90;;;;;;4941310;29;20059;-88
2023/09/14 00:56:55;;;;;;;33.08;21.30;;;14.20;99.90;;;;;;4935340;29;20649;-88
2023/09/14 00:59:45;;;;;;;37.97;24.38;;;14.20;99.90;;;;;;4939836;29;20701;-88
2023/09/14 01:02:33;;;;;;;40.45;24.73;;;14.20;99.90;;;;;;4927363;29;20055;-88
2023/09/14 01:05:21;;;;;;;39.47;23.67;;;14.20;99.90;;;;;;4932717;29;20154;-87
2023/09/14 01:08:09;;;;;;;37.60;24.33;;;14.30;99.90;;;;;;4936819;29;20063;-86
2023/09/14 01:10:56;;;;;;;44.55;25.08;;;14.20;99.90;;;;;;4937625;29;20043;-88
2023/09/14 01:14:04;;;;;;;42.45;24.95;;;14.20;99.90;;;;;;4937312;29;20350;-88
2023/09/14 01:17:00;;;;;;;42.55;25.38;;;14.20;99.90;;;;;;4933739;29;20066;-87
2023/09/14 01:19:56;;;;;;;47.35;26.33;;;14.10;99.90;;;;;;4936457;29;20036;-88
2023/09/14 01:23:04;;;;;;;44.83;26.83;;;14.10;99.90;;;;;;4939228;29;20146;-86
2023/09/14 01:25:52;;;;;;;44.55;28.27;;;14.10;99.90;;;;;;4936648;29;20051;-88
2023/09/14 01:28:40;;;;;;;46.63;28.42;;;14.10;99.90;;;;;;4931437;29;20043;-87
2023/09/14 01:31:28;;;;;;;53.63;30.25;;;14.10;99.90;;;;;;4941261;29;20044;-87
2023/09/14 01:34:17;;;;;;;54.83;31.63;;;14.10;99.90;;;;;;4952677;29;20044;-87
2023/09/14 01:37:05;;;;;;;54.92;30.65;;;14.00;99.90;;;;;;4947172;29;20108;-87
2023/09/14 01:39:53;;;;;;;61.15;33.33;;;14.00;99.90;;;;;;4943715;29;20090;-84
2023/09/14 01:42:43;;;;;;;58.50;32.67;;;14.00;99.90;;;;;;4979186;28;20058;-83
2023/09/14 01:45:35;;;;;;;57.03;33.45;;;14.00;99.90;;;;;;4948281;28;20059;-87
2023/09/14 01:48:23;;;;;;;49.35;25.85;;;14.00;99.90;;;;;;4936437;29;20067;-88
2023/09/14 01:51:13;;;;;;;67.60;35.13;;;14.10;99.90;;;;;;4935067;29;20127;-85
2023/09/14 01:54:00;;;;;;;69.95;35.55;;;14.20;99.90;;;;;;4929493;29;20124;-88
2023/09/14 01:56:48;;;;;;;67.30;37.03;;;14.20;99.90;;;;;;4945829;29;20056;-89
2023/09/14 01:59:37;;;;;;;67.25;36.03;;;14.20;99.90;;;;;;4947116;29;20111;-87
2023/09/14 02:02:26;;;;;;;71.57;38.45;;;14.20;99.90;;;;;;4949221;29;20055;-88
2023/09/14 02:05:13;;;;;;;75.45;38.00;;;14.20;99.90;;;;;;4946993;29;20783;-87
2023/09/14 02:08:00;;;;;;;69.80;38.35;;;14.30;99.90;;;;;;4942283;29;20062;-88
2023/09/14 02:10:51;;;;;;;67.00;37.75;;;14.30;99.90;;;;;;4937358;29;20051;-87
2023/09/14 02:13:38;;;;;;;72.22;39.28;;;14.40;99.90;;;;;;4931766;29;20063;-87
2023/09/14 02:16:25;;;;;;;78.88;38.95;;;14.40;99.90;;;;;;4930150;29;20074;-88
2023/09/14 02:19:12;;;;;;;73.18;39.13;;;14.40;99.90;;;;;;4940087;29;20058;-88
2023/09/14 02:22:00;;;;;;;80.78;41.42;;;14.40;99.90;;;;;;4939885;29;20040;-88
2023/09/14 02:24:48;;;;;;;69.85;37.45;;;14.50;99.90;;;;;;4928546;29;20148;-87
2023/09/14 02:27:37;;;;;;;71.32;37.78;;;14.50;99.90;;;;;;4940912;29;20133;-87
2023/09/14 02:30:26;;;;;;;70.32;36.33;;;14.50;99.90;;;;;;4937810;28;20107;-88
2023/09/14 02:33:13;;;;;;;67.82;37.33;;;14.60;99.90;;;;;;4942145;29;20683;-88
2023/09/14 02:36:01;;;;;;;63.75;34.95;;;14.50;99.90;;;;;;4933877;29;20523;-88
2023/09/14 02:38:48;;;;;;;66.50;36.55;;;14.50;99.90;;;;;;4935080;29;20051;-88
2023/09/14 02:41:37;;;;;;;55.97;33.20;;;14.50;99.90;;;;;;4947138;29;20051;-87
2023/09/14 02:44:24;;;;;;;56.97;34.38;;;14.50;99.90;;;;;;4932417;29;20048;-87
2023/09/14 02:47:14;;;;;;;58.42;32.35;;;14.50;99.90;;;;;;4935797;29;20047;-88
2023/09/14 02:50:01;;;;;;;59.10;33.97;;;14.60;99.90;;;;;;4930193;29;20239;-88
2023/09/14 02:52:48;;;;;;;52.72;31.02;;;14.60;99.90;;;;;;4945637;29;20051;-88
2023/09/14 02:55:36;;;;;;;51.55;29.67;;;14.60;99.90;;;;;;4930458;29;20058;-88
2023/09/14 02:58:23;;;;;;;48.92;29.05;;;14.60;99.90;;;;;;4942632;29;20120;-88
2023/09/14 03:01:16;;;;;;;47.38;28.55;;;14.60;99.90;;;;;;4945990;29;20052;-88
2023/09/14 03:04:04;;;;;;;49.33;27.65;;;14.70;99.90;;;;;;4930461;29;20055;-89
2023/09/14 03:06:55;;;;;;;45.20;26.25;;;14.70;99.90;;;;;;4930856;29;20155;-87
2023/09/14 03:09:43;;;;;;;44.00;28.07;;;14.70;99.90;;;;;;4930377;29;20044;-89
2023/09/14 03:12:30;;;;;;;45.63;27.55;;;14.70;99.90;;;;;;4943610;29;20048;-88
2023/09/14 03:15:19;;;;;;;48.17;26.95;;;14.80;99.90;;;;;;4930100;29;20044;-88
2023/09/14 03:18:06;;;;;;;42.63;24.83;;;14.80;99.90;;;;;;4933202;29;20047;-88
2023/09/14 03:20:55;;;;;;;41.92;26.85;;;14.80;99.90;;;;;;4938417;29;20160;-88
2023/09/14 03:23:42;;;;;;;39.63;25.02;;;14.90;99.90;;;;;;4931447;29;20070;-87
2023/09/14 03:26:32;;;;;;;42.65;26.30;;;14.90;99.90;;;;;;4946537;29;20055;-87
2023/09/14 03:29:21;;;;;;;40.60;25.27;;;14.90;99.90;;;;;;4936673;29;20636;-88
2023/09/14 03:32:08;;;;;;;40.35;25.80;;;14.90;99.90;;;;;;4939384;29;20757;-88
2023/09/14 03:34:56;;;;;;;41.05;26.98;;;15.00;99.90;;;;;;4947184;29;20050;-88
2023/09/14 03:37:43;;;;;;;43.30;25.92;;;14.90;99.90;;;;;;4941073;29;20413;-86
2023/09/14 03:40:30;;;;;;;40.55;24.67;;;15.00;99.90;;;;;;4948606;29;20062;-87
2023/09/14 03:43:17;;;;;;;37.05;24.27;;;14.90;99.90;;;;;;4933939;29;20047;-88
2023/09/14 03:46:07;;;;;;;41.22;24.38;;;15.00;99.90;;;;;;4934133;29;20050;-87
2023/09/14 03:48:54;;;;;;;38.00;24.25;;;15.00;99.90;;;;;;4938546;29;20394;-87
2023/09/14 03:51:42;;;;;;;38.95;26.13;;;15.10;99.90;;;;;;4941678;29;20046;-89
2023/09/14 03:54:29;;;;;;;42.40;27.02;;;15.00;99.90;;;;;;4940606;29;20558;-88
2023/09/14 03:57:16;;;;;;;35.92;25.13;;;15.00;99.90;;;;;;4940012;29;20056;-86
2023/09/14 04:00:10;;;;;;;37.65;25.08;;;15.00;99.90;;;;;;4940805;28;20040;-86
2023/09/14 04:02:58;;;;;;;40.75;26.08;;;15.10;99.90;;;;;;4945454;29;20039;-88
2023/09/14 04:05:45;;;;;;;36.00;23.27;;;15.10;99.90;;;;;;4947239;29;20469;-88
2023/09/14 04:08:33;;;;;;;37.40;22.73;;;15.10;99.90;;;;;;4931654;29;20183;-88
2023/09/14 04:11:22;;;;;;;35.55;24.30;;;15.10;99.90;;;;;;4938605;29;20044;-88
2023/09/14 04:14:12;;;;;;;44.08;25.67;;;15.10;99.90;;;;;;4938299;29;20052;-87
2023/09/14 04:17:00;;;;;;;36.10;26.08;;;15.10;99.90;;;;;;4931763;29;20051;-88
2023/09/14 04:19:47;;;;;;;37.35;25.98;;;15.10;99.90;;;;;;4938714;29;20051;-87
2023/09/14 04:22:38;;;;;;;39.45;24.95;;;15.10;99.90;;;;;;4946468;29;20066;-87
2023/09/14 04:25:25;;;;;;;40.53;27.23;;;15.10;99.90;;;;;;4945301;29;20417;-86
2023/09/14 04:28:17;;;;;;;39.78;27.23;;;15.10;99.90;;;;;;4945581;29;20067;-88
2023/09/14 04:31:08;;;;;;;36.50;24.05;;;15.10;99.90;;;;;;4936667;29;20381;-87
2023/09/14 04:33:58;;;;;;;39.08;27.38;;;15.10;99.90;;;;;;4943817;29;20066;-87
2023/09/14 04:36:45;;;;;;;37.67;25.95;;;15.10;99.90;;;;;;4954881;28;20066;-88
2023/09/14 04:39:34;;;;;;;33.83;23.20;;;15.10;99.90;;;;;;4944871;29;20059;-87
2023/09/14 04:42:21;;;;;;;40.33;25.45;;;15.10;99.90;;;;;;4941776;29;20100;-88
2023/09/14 04:45:09;;;;;;;37.40;25.33;;;15.10;99.90;;;;;;4947484;29;20074;-88
2023/09/14 04:47:58;;;;;;;44.30;28.27;;;15.10;99.90;;;;;;4932843;29;20122;-86
2023/09/14 04:50:45;;;;;;;37.15;26.02;;;15.10;99.90;;;;;;4930705;29;20528;-86
2023/09/14 04:53:33;;;;;;;39.00;26.20;;;15.10;99.90;;;;;;4933096;29;20056;-86
2023/09/14 04:56:20;;;;;;;37.05;26.70;;;15.10;99.90;;;;;;4931639;29;20116;-87
2023/09/14 04:59:07;;;;;;;38.25;26.10;;;15.10;99.90;;;;;;4936065;29;20048;-89
2023/09/14 05:01:55;;;;;;;32.75;23.35;;;15.10;99.90;;;;;;4935935;29;20055;-87
2023/09/14 05:04:42;;;;;;;33.42;23.05;;;15.10;99.90;;;;;;4935883;29;20052;-86
2023/09/14 05:07:30;;;;;;;31.95;23.27;;;15.20;99.90;;;;;;4944145;29;20052;-85
2023/09/14 05:10:22;;;;;;;29.83;21.10;;;15.20;99.90;;;;;;4939433;29;20044;-87
2023/09/14 05:13:10;;;;;;;32.47;19.55;;;15.20;99.90;;;;;;4946729;29;20054;-86
2023/09/14 05:15:59;;;;;;;31.35;19.73;;;15.20;99.90;;;;;;4936756;29;20054;-87
2023/09/14 05:18:46;;;;;;;29.13;20.70;;;15.10;99.90;;;;;;4936364;29;20501;-87
2023/09/14 05:21:34;;;;;;;28.55;20.05;;;15.00;99.90;;;;;;4939844;29;20048;-90
2023/09/14 05:24:21;;;;;;;26.33;19.08;;;15.00;99.90;;;;;;4949439;29;20051;-88
2023/09/14 05:27:09;;;;;;;29.08;20.50;;;15.00;99.90;;;;;;4937792;29;20051;-87
2023/09/14 05:29:56;;;;;;;31.05;19.70;;;15.00;99.90;;;;;;4937828;29;20055;-87
2023/09/14 05:32:45;;;;;;;27.48;19.25;;;14.90;99.90;;;;;;4943631;29;20362;-88
2023/09/14 05:35:32;;;;;;;30.15;19.85;;;15.00;99.90;;;;;;4949626;29;20056;-87
2023/09/14 05:38:19;;;;;;;30.02;22.08;;;14.90;99.90;;;;;;4940193;29;20047;-87
2023/09/14 05:41:07;;;;;;;34.88;23.17;;;14.90;99.90;;;;;;4929271;28;20047;-87
2023/09/14 05:43:57;;;;;;;37.25;22.50;;;14.90;99.90;;;;;;4952863;28;20047;-89
2023/09/14 05:46:47;;;;;;;34.83;22.85;;;15.00;99.90;;;;;;4946400;28;20044;-91
2023/09/14 05:49:34;;;;;;;30.05;21.08;;;15.10;99.90;;;;;;4942075;29;20083;-90
2023/09/14 05:52:21;;;;;;;29.80;20.88;;;15.20;99.90;;;;;;4942317;29;20048;-88
2023/09/14 05:55:08;;;;;;;32.53;20.35;;;15.40;99.90;;;;;;4948291;28;20043;-90
2023/09/14 05:57:58;;;;;;;31.52;20.08;;;15.50;99.90;;;;;;4948033;29;20067;-89
2023/09/14 06:00:47;;;;;;;26.55;18.50;;;15.60;99.90;;;;;;4959454;29;20043;-88
2023/09/14 06:03:35;;;;;;;23.77;17.00;;;15.70;99.90;;;;;;4954854;29;20047;-91
2023/09/14 06:06:24;;;;;;;26.35;17.70;;;15.70;99.90;;;;;;4945796;29;20054;-91
2023/09/14 06:09:12;;;;;;;26.40;18.65;;;15.80;99.90;;;;;;4951354;29;20051;-90
2023/09/14 06:12:01;;;;;;;22.50;15.27;;;15.90;99.90;;;;;;4941856;29;20058;-91
2023/09/14 06:14:49;;;;;;;22.98;17.10;;;16.00;99.90;;;;;;4935282;29;20048;-90
2023/09/14 06:17:36;;;;;;;20.98;15.57;;;16.10;99.90;;;;;;4942078;29;20056;-89
2023/09/14 06:20:24;;;;;;;23.08;15.13;;;16.00;99.90;;;;;;4947713;29;20128;-91
2023/09/14 06:23:11;;;;;;;20.95;15.70;;;16.00;99.90;;;;;;4934215;29;20054;-88
2023/09/14 06:25:58;;;;;;;23.20;14.80;;;16.10;99.90;;;;;;4945335;29;20048;-91
2023/09/14 06:28:48;;;;;;;23.13;15.65;;;16.10;99.90;;;;;;4944921;29;20055;-93
2023/09/14 06:31:35;;;;;;;20.90;15.15;;;16.10;38.20;;;;;;4950812;29;20047;-92
2023/09/14 06:34:24;;;;;;;25.58;16.50;;;16.10;1.00;;;;;;4937547;29;20745;-91
2023/09/14 06:37:21;;;;;;;24.02;16.88;;;16.20;1.00;;;;;;4943350;29;20054;-91
2023/09/14 06:40:24;;;;;;;23.83;16.98;;;16.10;99.90;;;;;;4939293;29;20055;-90
2023/09/14 06:43:11;;;;;;;23.88;16.50;;;16.10;99.90;;;;;;4936285;29;20051;-90
2023/09/14 06:45:59;;;;;;;23.15;16.05;;;16.00;99.90;;;;;;4933021;29;20103;-91
2023/09/14 06:48:46;;;;;;;24.33;16.02;;;16.10;99.90;;;;;;4927873;29;20060;-90
2023/09/14 06:51:33;;;;;;;26.58;16.63;;;16.20;99.90;;;;;;4947314;29;20650;-92
2023/09/14 06:54:21;;;;;;;27.25;16.25;;;16.20;1.00;;;;;;4948046;29;20044;-92
2023/09/14 06:57:08;;;;;;;21.92;14.98;;;16.30;1.00;;;;;;4950179;29;20098;-93
2023/09/14 06:59:55;;;;;;;17.77;12.23;;;16.40;1.00;;;;;;4951951;28;20085;-91
2023/09/14 07:02:46;;;;;;;16.50;12.60;;;16.40;1.00;;;;;;4932515;29;20545;-91
2023/09/14 07:05:35;;;;;;;16.05;12.15;;;16.40;99.90;;;;;;4946871;29;20070;-89
2023/09/14 07:08:22;;;;;;;15.48;11.38;;;16.50;99.90;;;;;;4939083;29;20051;-93
2023/09/14 07:11:09;;;;;;;15.98;11.77;;;16.70;81.00;;;;;;4951240;29;20039;-92
2023/09/14 07:13:58;;;;;;;20.05;12.70;;;16.70;1.00;;;;;;4951264;29;20059;-92
2023/09/14 07:16:45;;;;;;;15.43;11.68;;;16.70;1.00;;;;;;4947529;29;20048;-92
2023/09/14 07:19:35;;;;;;;15.77;11.30;;;16.80;1.00;;;;;;4939799;29;20058;-92
2023/09/14 07:22:22;;;;;;;15.48;10.75;;;16.80;1.00;;;;;;4949252;29;20087;-91
2023/09/14 07:25:10;;;;;;;16.17;11.68;;;16.80;99.90;;;;;;4952435;29;20036;-94
2023/09/14 07:27:57;;;;;;;16.63;12.32;;;16.90;99.90;;;;;;4940815;29;20048;-88
2023/09/14 07:30:47;;;;;;;16.38;12.15;;;17.00;57.10;;;;;;4955426;29;20055;-91
2023/09/14 07:33:34;;;;;;;17.05;11.10;;;17.10;99.90;;;;;;4962227;29;20058;-92
2023/09/14 07:36:21;;;;;;;17.70;11.50;;;17.00;99.90;;;;;;4954268;29;20066;-90
2023/09/14 07:39:09;;;;;;;16.38;12.35;;;17.10;99.90;;;;;;4945855;28;20048;-90
2023/09/14 07:41:56;;;;;;;16.02;12.65;;;17.00;99.90;;;;;;4948521;29;20134;-92
2023/09/14 07:44:46;;;;;;;16.75;12.98;;;16.90;99.90;;;;;;4954043;29;20055;-87
2023/09/14 07:47:33;;;;;;;20.63;12.93;;;16.80;80.40;;;;;;4976809;28;20040;-87
2023/09/14 07:50:21;;;;;;;18.95;13.70;;;16.80;99.90;;;;;;4961263;28;20082;-89
2023/09/14 07:53:13;;;;;;;16.85;13.13;;;16.80;99.90;;;;;;4934088;29;20052;-86
2023/09/14 07:56:00;;;;;;;24.73;13.75;;;16.70;1.00;;;;;;4937434;29;20058;-89
2023/09/14 07:58:50;;;;;;;21.55;13.90;;;16.60;99.90;;;;;;4946390;29;20442;-89
2023/09/14 08:01:37;;;;;;;19.08;13.50;;;16.60;95.20;;;;;;4947374;29;20199;-89
2023/09/14 08:04:24;;;;;;;16.98;13.43;;;16.80;96.50;;;;;;4944097;29;20619;-89
2023/09/14 08:07:12;;;;;;;17.40;13.30;;;16.80;22.20;;;;;;4935881;29;20135;-85
2023/09/14 08:10:00;;;;;;;20.23;12.45;;;16.90;1.00;;;;;;4946342;28;20048;-88
2023/09/14 08:12:47;;;;;;;21.02;13.75;;;16.90;1.00;;;;;;4937083;29;20044;-89
2023/09/14 08:15:34;;;;;;;17.42;12.68;;;17.00;1.00;;;;;;4939445;29;20047;-94
2023/09/14 08:18:22;;;;;;;16.55;12.30;;;17.10;99.90;;;;;;4945624;29;20055;-93
2023/09/14 08:21:12;;;;;;;14.95;11.32;;;17.30;99.90;;;;;;4941065;29;20456;-92
2023/09/14 08:23:59;;;;;;;14.90;11.85;;;17.30;97.70;;;;;;4952643;29;20103;-90
2023/09/14 08:26:47;;;;;;;17.23;11.57;;;17.30;1.00;;;;;;4948118;29;20051;-90
2023/09/14 08:29:34;;;;;;;15.35;10.30;;;17.40;1.00;;;;;;4933966;29;20059;-90
2023/09/14 08:32:22;;;;;;;13.23;10.63;;;17.70;1.00;;;;;;4942947;29;20047;-89
2023/09/14 08:35:28;;;;;;;12.95;9.85;;;18.00;99.90;;;;;;4937074;29;20122;-89
2023/09/14 08:38:17;;;;;;;13.68;10.63;;;18.20;99.90;;;;;;4935566;29;20129;-92
2023/09/14 08:41:21;;;;;;;16.15;11.55;;;18.40;99.90;;;;;;4932398;29;20062;-88
2023/09/14 08:44:09;;;;;;;14.20;9.98;;;18.20;1.00;;;;;;4941179;29;20044;-85
2023/09/14 08:46:57;;;;;;;12.93;9.95;;;17.90;1.00;;;;;;4933482;29;20044;-89
2023/09/14 08:49:46;;;;;;;13.70;10.25;;;18.10;1.00;;;;;;4937492;29;20047;-90
2023/09/14 08:52:36;;;;;;;14.63;10.05;;;18.20;1.00;;;;;;4928399;29;20063;-89
2023/09/14 08:55:29;;;;;;;17.02;11.27;;;18.30;1.00;;;;;;4929143;29;20047;-89
2023/09/14 08:58:18;;;;;;;14.65;11.32;;;18.60;1.00;;;;;;4941448;29;20050;-89
2023/09/14 09:01:09;;;;;;;16.75;11.13;;;18.60;99.90;;;;;;4932813;29;20048;-90
2023/09/14 09:03:56;;;;;;;14.25;11.20;;;18.30;99.90;;;;;;4934601;29;20054;-88
2023/09/14 09:06:47;;;;;;;14.82;11.70;;;18.20;99.90;;;;;;4929914;29;20382;-91
2023/09/14 09:09:36;;;;;;;13.38;10.25;;;18.10;99.90;;;;;;4940016;29;20441;-87
2023/09/14 09:12:31;;;;;;;14.93;11.00;;;18.40;99.90;;;;;;4939653;29;20051;-88
2023/09/14 09:15:18;;;;;;;14.02;9.13;;;18.80;68.10;;;;;;4932702;29;20044;-84
2023/09/14 09:18:10;;;;;;;12.63;8.77;;;18.90;99.90;;;;;;4936236;29;20054;-88
2023/09/14 09:21:05;;;;;;;9.85;8.25;;;19.40;99.90;;;;;;4940829;29;20055;-88
2023/09/14 09:24:24;;;;;;;9.30;7.63;;;19.90;99.90;;;;;;4928716;29;20067;-90
2023/09/14 09:27:49;;;;;;;8.60;7.28;;;20.40;99.90;;;;;;4922750;29;20066;-89
2023/09/14 09:30:39;;;;;;;10.10;7.22;;;21.90;22.60;;;;;;4933048;28;20132;-91
2023/09/14 09:33:37;;;;;;;9.57;6.78;;;22.90;99.90;;;;;;4936432;29;20048;-88
2023/09/14 09:36:24;;;;;;;10.10;7.22;;;23.80;1.00;;;;;;4932944;29;20096;-89
2023/09/14 09:39:13;;;;;;;10.40;7.00;;;23.30;1.00;;;;;;4936195;29;20059;-88
2023/09/14 09:42:00;;;;;;;9.05;7.28;;;23.50;1.00;;;;;;4937140;29;20047;-89
2023/09/14 09:44:48;;;;;;;10.63;7.07;;;23.00;1.00;;;;;;4938693;29;20062;-88
2023/09/14 09:47:36;;;;;;;7.45;5.75;;;22.70;99.90;;;;;;4934590;29;20043;-88
2023/09/14 09:50:23;;;;;;;8.48;6.55;;;22.00;99.90;;;;;;4945370;29;20052;-89
2023/09/14 09:53:16;;;;;;;7.05;5.80;;;21.60;1.00;;;;;;4930218;29;20047;-89
2023/09/14 09:56:03;;;;;;;;;;;21.60;1.00;;;;;;4933778;29;20058;-89
2023/09/14 09:58:53;;;;;;;7.07;5.40;;;22.10;1.00;;;;;;4928841;29;19927;-90
2023/09/14 10:01:46;;;;;;;8.80;5.80;;;23.40;99.90;;;;;;4932524;29;20044;-89
2023/09/14 10:04:35;;;;;;;6.35;5.35;;;24.90;99.90;;;;;;4943666;29;20362;-88
2023/09/14 10:07:23;;;;;;;7.85;6.45;;;26.30;99.90;;;;;;4933862;29;20055;-89
2023/09/14 10:10:11;;;;;;;6.85;6.07;;;26.00;99.90;;;;;;4932680;29;20485;-90
2023/09/14 10:12:59;;;;;;;6.75;4.90;;;25.00;99.90;;;;;;4931859;29;20070;-89
2023/09/14 10:15:51;;;;;;;9.15;5.75;;;25.70;99.90;;;;;;4934104;29;20362;-86
2023/09/14 10:18:43;;;;;;;8.17;6.63;;;25.60;99.90;;;;;;4935066;29;20134;-87
2023/09/14 10:21:33;;;;;;;9.13;7.07;;;24.00;99.90;;;;;;4933489;29;20054;-90
2023/09/14 10:24:21;;;;;;;8.52;5.47;;;24.70;99.90;;;;;;4937098;29;20169;-85
2023/09/14 10:27:10;;;;;;;6.43;5.70;;;25.70;99.90;;;;;;4932907;29;20067;-89
2023/09/14 10:29:59;;;;;;;5.72;4.65;;;26.90;99.90;;;;;;4931659;29;20043;-89
2023/09/14 10:32:48;;;;;;;5.18;4.68;;;26.20;99.90;;;;;;4936660;29;20461;-91
2023/09/14 10:35:41;;;;;;;7.90;5.13;;;26.20;99.90;;;;;;4929104;29;20075;-91
2023/09/14 10:38:32;;;;;;;6.10;5.50;;;26.50;99.90;;;;;;4937119;29;20065;-89
2023/09/14 10:41:22;;;;;;;7.43;5.70;;;26.40;99.90;;;;;;4937148;29;20402;-87
2023/09/14 10:44:09;;;;;;;6.38;4.22;;;26.00;99.90;;;;;;4943168;29;20057;-86
2023/09/14 10:47:10;;;;;;;6.45;4.35;;;27.50;99.90;;;;;;4929729;29;20063;-88
2023/09/14 10:49:58;;;;;;;5.15;3.92;;;29.70;99.90;;;;;;4938674;29;20449;-88
2023/09/14 10:52:47;;;;;;;8.27;5.00;;;31.50;99.90;;;;;;4936454;29;20062;-89
2023/09/14 10:55:38;;;;;;;6.47;3.53;;;30.50;99.90;;;;;;4938357;29;20066;-87
2023/09/14 10:58:26;;;;;;;3.45;3.10;;;30.30;99.90;;;;;;4932684;29;20411;-85
2023/09/14 11:01:13;;;;;;;7.40;3.40;;;29.50;99.90;;;;;;4944161;29;20078;-88
2023/09/14 11:04:15;;;;;;;5.75;3.55;;;28.00;99.90;;;;;;4935761;29;20050;-88
2023/09/14 11:07:04;;;;;;;;;;;26.20;99.90;;;;;;4938506;29;20055;-88
2023/09/14 11:10:07;;;;;;;4.30;3.38;;;25.40;99.90;;;;;;4941000;29;19926;-89
2023/09/14 11:13:20;;;;;;;3.78;3.40;;;26.80;99.90;;;;;;4937607;29;20099;-86
2023/09/14 11:16:12;;;;;;;;;;;28.10;99.90;;;;;;4942542;29;20043;-88
2023/09/14 11:19:01;;;;;;;5.60;3.53;;;28.60;99.90;;;;;;4939832;29;19923;-90
2023/09/14 11:21:49;;;;;;;6.80;3.85;;;29.40;99.90;;;;;;4952068;29;20086;-89
2023/09/14 11:24:38;;;;;;;3.45;2.65;;;30.00;99.90;;;;;;4943177;29;20391;-91
2023/09/14 11:27:31;;;;;;;3.85;3.10;;;29.70;99.90;;;;;;4937527;29;20496;-91
2023/09/14 11:30:27;;;;;;;3.85;3.20;;;28.30;99.90;;;;;;4934630;29;20066;-87
2023/09/14 11:33:18;;;;;;;4.18;2.83;;;27.90;99.90;;;;;;4933937;29;20866;-84
2023/09/14 11:36:07;;;;;;;3.83;3.13;;;28.70;99.90;;;;;;4923427;29;20552;-86
2023/09/14 11:38:59;;;;;;;5.45;2.83;;;27.80;99.90;;;;;;4940988;29;20183;-88
2023/09/14 11:41:49;;;;;;;3.75;2.85;;;26.70;99.90;;;;;;4941073;29;20058;-87
2023/09/14 11:44:49;;;;;;;3.33;2.47;;;26.10;99.90;;;;;;4938334;29;20058;-89
2023/09/14 11:47:44;;;;;;;3.53;3.08;;;25.20;99.90;;;;;;4942476;29;20044;-88
2023/09/14 11:50:40;;;;;;;3.65;2.78;;;24.40;99.90;;;;;;4936424;29;20135;-89
2023/09/14 11:53:31;;;;;;;5.20;2.80;;;23.40;99.90;;;;;;4938815;29;20369;-89
2023/09/14 11:56:18;;;;;;;4.03;2.75;;;23.00;99.90;;;;;;4960112;29;20043;-90
2023/09/14 11:59:05;;;;;;;4.65;3.00;;;23.30;99.90;;;;;;4954254;29;20043;-89
2023/09/14 12:01:53;;;;;;;4.00;2.63;;;24.60;99.90;;;;;;4944275;29;20054;-88
2023/09/14 12:04:40;;;;;;;4.57;2.67;;;25.80;99.90;;;;;;4947625;29;20056;-89
2023/09/14 12:07:28;;;;;;;4.30;2.90;;;27.60;99.90;;;;;;4949276;29;20410;-86
2023/09/14 12:10:23;;;;;;;3.72;2.75;;;28.50;99.90;;;;;;4938050;29;20047;-87
2023/09/14 12:13:49;;;;;;;4.97;3.22;;;29.30;99.90;;;;;;4944816;29;20058;-84
2023/09/14 12:17:02;;;;;;;4.18;2.78;;;29.60;99.90;;;;;;4946362;29;20051;-87
2023/09/14 12:19:56;;;;;;;3.83;2.60;;;30.90;99.90;;;;;;4946197;29;20680;-84
2023/09/14 12:22:44;;;;;;;5.72;2.40;;;31.50;99.90;;;;;;4943953;29;20126;-88
2023/09/14 12:25:32;;;;;;;4.03;2.22;;;31.80;99.90;;;;;;4943075;29;20044;-87
2023/09/14 12:28:24;;;;;;;3.58;2.20;;;32.40;11.10;;;;;;4943871;29;20139;-90
2023/09/14 12:31:18;;;;;;;5.53;2.20;;;32.60;4.80;;;;;;4938240;29;20044;-89
2023/09/14 12:34:09;;;;;;;2.92;2.50;;;32.80;1.00;;;;;;4942787;29;20137;-84
2023/09/14 12:36:59;;;;;;;6.23;2.63;;;31.70;1.00;;;;;;4937172;29;20071;-87
2023/09/14 12:39:51;;;;;;;4.22;2.20;;;31.00;1.00;;;;;;4945960;29;20314;-88
2023/09/14 12:42:43;;;;;;;2.85;2.40;;;30.40;1.00;;;;;;4947087;29;20055;-87
2023/09/14 12:45:34;;;;;;;4.20;2.40;;;31.50;1.00;;;;;;4935202;29;20058;-86
2023/09/14 12:48:28;;;;;;;5.53;2.23;;;31.60;1.00;;;;;;4939821;29;20040;-86
2023/09/14 12:51:24;;;;;;;3.83;2.50;;;32.80;1.00;;;;;;4937925;29;20302;-88
2023/09/14 12:54:13;;;;;;;3.55;2.40;;;33.00;1.00;;;;;;4950506;28;20036;-90
2023/09/14 12:57:16;;;;;;;2.67;2.30;;;33.20;1.00;;;;;;4941585;29;20047;-90
2023/09/14 13:00:20;;;;;;;3.35;2.22;;;30.50;1.00;;;;;;4947342;29;20043;-88
2023/09/14 13:03:09;;;;;;;3.60;1.90;;;28.70;1.00;;;;;;4946380;29;20062;-90
2023/09/14 13:06:03;;;;;;;3.00;2.05;;;28.10;1.00;;;;;;4952233;28;20495;-87
2023/09/14 13:08:52;;;;;;;3.30;2.17;;;27.20;1.00;;;;;;4942034;29;20047;-85
2023/09/14 13:11:40;;;;;;;2.50;1.90;;;26.00;1.00;;;;;;4934392;29;20047;-90
2023/09/14 13:14:27;;;;;;;5.90;2.08;;;25.10;1.00;;;;;;4954467;28;20059;-88
2023/09/14 13:17:20;;;;;;;3.63;1.92;;;24.30;1.00;;;;;;4938081;29;20052;-88
2023/09/14 13:20:09;;;;;;;4.55;2.35;;;23.90;1.00;;;;;;4942216;29;20063;-88
2023/09/14 13:22:57;;;;;;;4.25;2.60;;;23.40;1.00;;;;;;4937111;29;20039;-88
2023/09/14 13:25:48;;;;;;;4.50;2.72;;;23.30;1.00;;;;;;4948698;29;20114;-90
2023/09/14 13:28:35;;;;;;;3.97;2.28;;;22.90;1.00;;;;;;4943476;28;20044;-86
2023/09/14 13:31:22;;;;;;;6.35;2.45;;;22.50;1.00;;;;;;4947884;28;20040;-85
2023/09/14 13:34:10;;;;;;;4.03;2.65;;;22.30;3.30;;;;;;4941192;29;20444;-89
2023/09/14 13:36:57;;;;;;;5.80;2.65;;;22.70;3.60;;;;;;4942798;29;20445;-87
2023/09/14 13:39:47;;;;;;;5.28;2.47;;;24.30;5.20;;;;;;4934417;29;20047;-91
2023/09/14 13:42:37;;;;;;;6.82;2.15;;;26.40;1.00;;;;;;4940002;29;20055;-90
2023/09/14 13:45:26;;;;;;;2.38;1.85;;;27.90;1.00;;;;;;4932246;29;20134;-91
2023/09/14 13:48:16;;;;;;;3.33;1.75;;;29.30;1.00;;;;;;4939004;29;20054;-92
2023/09/14 13:51:04;;;;;;;3.75;1.70;;;29.30;1.00;;;;;;4935189;29;20044;-91
2023/09/14 13:53:52;;;;;;;3.63;2.00;;;30.50;1.00;;;;;;4936886;29;20047;-89
2023/09/14 13:56:41;;;;;;;2.25;1.52;;;30.90;1.00;;;;;;4943138;29;20261;-88
2023/09/14 13:59:40;;;;;;;6.28;2.03;;;31.00;1.00;;;;;;4949401;29;20052;-90
2023/09/14 14:02:28;;;;;;;2.45;1.63;;;31.90;1.00;;;;;;4945948;29;20043;-88
2023/09/14 14:05:21;;;;;;;3.67;1.50;;;32.10;1.00;;;;;;4938068;29;20044;-90
2023/09/14 14:08:10;;;;;;;2.08;1.40;;;33.90;1.00;;;;;;4940238;29;20050;-93
2023/09/14 14:10:58;;;;;;;4.13;1.75;;;33.30;1.00;;;;;;4945939;28;20060;-86
2023/09/14 14:13:47;;;;;;;4.75;1.92;;;31.70;1.00;;;;;;4930347;29;20043;-89
2023/09/14 14:16:34;;;;;;;3.25;1.40;;;30.70;1.00;;;;;;4942184;29;20048;-91
2023/09/14 14:19:23;;;;;;;2.88;1.65;;;31.00;1.00;;;;;;4937503;29;20062;-88
2023/09/14 14:22:11;;;;;;;2.38;1.70;;;31.50;1.00;;;;;;4945675;29;20771;-89
2023/09/14 14:24:58;;;;;;;2.38;1.50;;;29.80;1.00;;;;;;4936424;29;20159;-87
2023/09/14 14:27:45;;;;;;;2.72;1.58;;;28.70;1.00;;;;;;4940759;29;20489;-90
2023/09/14 14:30:33;;;;;;;2.00;1.67;;;28.40;1.00;;;;;;4935517;29;20063;-91
2023/09/14 14:33:20;;;;;;;2.35;1.60;;;28.20;1.00;;;;;;4940594;29;20457;-87